AFR66JB LFRS-LFPG
Flight info
| Callsign | AFR66JB |
|---|---|
| Flight time | 0h 42m |
| Altitude | 28000 |
| Route | ANG UN741 KEPER |
| Aircraft | A320/M-SDE2E3FGIJ1RWY/HB1 |
Departure
| Time | 2026-05-01 14:44 |
|---|---|
| Airport | Nantes Atlantique Airport (LFRS) |
Arrival
| Time | 2026-05-01 15:26 |
|---|---|
| Airport | Charles de Gaulle International Airport (LFPG) |
| Time | Latitude | Longitude | Altitude | Speed | Heading |
|---|---|---|---|---|---|
| 2026-05-01 14:28 | 47.15716 | -1.60264 | 91 ft | 0 kts | 44° |
| 2026-05-01 14:37 | 47.15713 | -1.60269 | 91 ft | 4 kts | 44° |
| 2026-05-01 14:38 | 47.15694 | -1.60297 | 90 ft | 4 kts | 44° |
| 2026-05-01 14:38 | 47.15674 | -1.60323 | 89 ft | 4 kts | 31° |
| 2026-05-01 14:38 | 47.15653 | -1.60334 | 90 ft | 4 kts | 328° |
| 2026-05-01 14:38 | 47.15637 | -1.60314 | 90 ft | 1 kts | 318° |
| 2026-05-01 14:39 | 47.15636 | -1.60313 | 90 ft | 0 kts | 318° |
| 2026-05-01 14:40 | 47.15642 | -1.60321 | 90 ft | 5 kts | 318° |
| 2026-05-01 14:41 | 47.15697 | -1.60392 | 90 ft | 14 kts | 320° |
| 2026-05-01 14:41 | 47.15784 | -1.60448 | 89 ft | 14 kts | 13° |
| 2026-05-01 14:41 | 47.15875 | -1.60379 | 92 ft | 15 kts | 27° |
| 2026-05-01 14:41 | 47.15970 | -1.60307 | 90 ft | 16 kts | 27° |
| 2026-05-01 14:42 | 47.16089 | -1.60217 | 92 ft | 21 kts | 27° |
| 2026-05-01 14:42 | 47.16229 | -1.60112 | 90 ft | 24 kts | 27° |
| 2026-05-01 14:42 | 47.16366 | -1.60070 | 87 ft | 21 kts | 345° |
| 2026-05-01 14:42 | 47.16449 | -1.60179 | 87 ft | 16 kts | 265° |
| 2026-05-01 14:43 | 47.16367 | -1.60273 | 90 ft | 17 kts | 208° |
| 2026-05-01 14:43 | 47.16149 | -1.60439 | 85 ft | 70 kts | 207° |
| 2026-05-01 14:43 | 47.15495 | -1.60937 | 90 ft | 138 kts | 207° |
| 2026-05-01 14:43 | 47.14521 | -1.61686 | 437 ft | 162 kts | 208° |
| 2026-05-01 14:44 | 47.13518 | -1.62455 | 1260 ft | 164 kts | 208° |
| 2026-05-01 14:44 | 47.11410 | -1.63647 | 2758 ft | 167 kts | 175° |
| 2026-05-01 14:44 | 47.10316 | -1.63049 | 3353 ft | 177 kts | 142° |
| 2026-05-01 14:45 | 47.09576 | -1.61527 | 3709 ft | 200 kts | 106° |
| 2026-05-01 14:45 | 47.09943 | -1.57036 | 4478 ft | 250 kts | 77° |
| 2026-05-01 14:45 | 47.10341 | -1.54447 | 5142 ft | 267 kts | 77° |
| 2026-05-01 14:46 | 47.10752 | -1.51757 | 6080 ft | 273 kts | 77° |
| 2026-05-01 14:46 | 47.11581 | -1.46235 | 7999 ft | 281 kts | 77° |
| 2026-05-01 14:46 | 47.11999 | -1.43410 | 8935 ft | 285 kts | 78° |
| 2026-05-01 14:47 | 47.12420 | -1.40542 | 9851 ft | 289 kts | 78° |
| 2026-05-01 14:47 | 47.12851 | -1.37597 | 10489 ft | 305 kts | 78° |
| 2026-05-01 14:47 | 47.13386 | -1.34466 | 10904 ft | 325 kts | 70° |
| 2026-05-01 14:48 | 47.15784 | -1.28726 | 12446 ft | 337 kts | 45° |
| 2026-05-01 14:48 | 47.17580 | -1.26475 | 13240 ft | 341 kts | 37° |
| 2026-05-01 14:48 | 47.21384 | -1.22167 | 14762 ft | 349 kts | 37° |
| 2026-05-01 14:49 | 47.25272 | -1.17754 | 16186 ft | 357 kts | 37° |
| 2026-05-01 14:49 | 47.29239 | -1.13234 | 17557 ft | 364 kts | 37° |
| 2026-05-01 14:50 | 47.32626 | -1.09363 | 18659 ft | 371 kts | 37° |
| 2026-05-01 14:50 | 47.37412 | -1.03896 | 20107 ft | 379 kts | 37° |
| 2026-05-01 14:51 | 47.39501 | -1.01504 | 20710 ft | 382 kts | 37° |
| 2026-05-01 14:51 | 47.43739 | -0.96643 | 21839 ft | 389 kts | 38° |
| 2026-05-01 14:52 | 47.48043 | -0.91692 | 22894 ft | 395 kts | 38° |
| 2026-05-01 14:52 | 47.50217 | -0.89178 | 23422 ft | 398 kts | 39° |
| 2026-05-01 14:52 | 47.53883 | -0.82998 | 24386 ft | 405 kts | 59° |
| 2026-05-01 14:53 | 47.55148 | -0.79259 | 24847 ft | 408 kts | 69° |
| 2026-05-01 14:53 | 47.56125 | -0.75302 | 25306 ft | 411 kts | 70° |
| 2026-05-01 14:53 | 47.57099 | -0.71305 | 25757 ft | 414 kts | 70° |
| 2026-05-01 14:53 | 47.58078 | -0.67280 | 26197 ft | 416 kts | 70° |
| 2026-05-01 14:54 | 47.59063 | -0.63236 | 26625 ft | 419 kts | 70° |
| 2026-05-01 14:54 | 47.60056 | -0.59163 | 27037 ft | 422 kts | 70° |
| 2026-05-01 14:54 | 47.61054 | -0.55060 | 27441 ft | 425 kts | 70° |
| 2026-05-01 14:54 | 47.62058 | -0.50928 | 27833 ft | 427 kts | 70° |
| 2026-05-01 14:55 | 47.63060 | -0.46773 | 27980 ft | 427 kts | 70° |
| 2026-05-01 14:55 | 47.64037 | -0.42709 | 28016 ft | 410 kts | 70° |
| 2026-05-01 14:55 | 47.64980 | -0.38774 | 28009 ft | 401 kts | 70° |
| 2026-05-01 14:56 | 47.66836 | -0.31021 | 28004 ft | 398 kts | 70° |
| 2026-05-01 14:56 | 47.68680 | -0.23294 | 27993 ft | 395 kts | 70° |
| 2026-05-01 14:56 | 47.69587 | -0.19478 | 27864 ft | 390 kts | 70° |
| 2026-05-01 14:57 | 47.70490 | -0.15681 | 27864 ft | 390 kts | 70° |
| 2026-05-01 14:57 | 47.72299 | -0.08076 | 27864 ft | 391 kts | 70° |
| 2026-05-01 14:57 | 47.73197 | -0.04269 | 27864 ft | 391 kts | 71° |
| 2026-05-01 14:58 | 47.74090 | -0.00459 | 27592 ft | 391 kts | 71° |
| 2026-05-01 14:58 | 47.74986 | 0.03367 | 26982 ft | 391 kts | 71° |
| 2026-05-01 14:58 | 47.75877 | 0.07160 | 26539 ft | 387 kts | 70° |
| 2026-05-01 14:58 | 47.76761 | 0.10913 | 26090 ft | 382 kts | 70° |
| 2026-05-01 14:59 | 47.77634 | 0.14623 | 25626 ft | 379 kts | 70° |
| 2026-05-01 14:59 | 47.78497 | 0.18307 | 25163 ft | 376 kts | 71° |
| 2026-05-01 14:59 | 47.79355 | 0.21959 | 24694 ft | 373 kts | 69° |
| 2026-05-01 14:59 | 47.80501 | 0.25394 | 24206 ft | 370 kts | 57° |
| 2026-05-01 15:00 | 47.83973 | 0.30881 | 23554 ft | 364 kts | 36° |
| 2026-05-01 15:00 | 47.86039 | 0.33059 | 23261 ft | 363 kts | 35° |
| 2026-05-01 15:00 | 47.88102 | 0.35222 | 22985 ft | 362 kts | 34° |
| 2026-05-01 15:01 | 47.90158 | 0.37368 | 22707 ft | 360 kts | 34° |
| 2026-05-01 15:01 | 47.92205 | 0.39507 | 22416 ft | 358 kts | 34° |
| 2026-05-01 15:01 | 47.94241 | 0.41638 | 22137 ft | 357 kts | 34° |
| 2026-05-01 15:01 | 47.96269 | 0.43762 | 21845 ft | 355 kts | 35° |
| 2026-05-01 15:02 | 47.98286 | 0.45878 | 21582 ft | 354 kts | 35° |
| 2026-05-01 15:02 | 47.98940 | 0.46564 | 21486 ft | 353 kts | 35° |
| 2026-05-01 15:02 | 48.02297 | 0.50091 | 21034 ft | 351 kts | 35° |
| 2026-05-01 15:02 | 48.04287 | 0.52188 | 20760 ft | 349 kts | 35° |
| 2026-05-01 15:03 | 48.06271 | 0.54277 | 20485 ft | 348 kts | 35° |
| 2026-05-01 15:03 | 48.08244 | 0.56357 | 20215 ft | 346 kts | 35° |
| 2026-05-01 15:03 | 48.10209 | 0.58431 | 19946 ft | 345 kts | 35° |
| 2026-05-01 15:03 | 48.12164 | 0.60497 | 19676 ft | 343 kts | 35° |
| 2026-05-01 15:04 | 48.14112 | 0.62559 | 19407 ft | 342 kts | 35° |
| 2026-05-01 15:04 | 48.16051 | 0.64610 | 19143 ft | 341 kts | 35° |
| 2026-05-01 15:04 | 48.17982 | 0.66656 | 18878 ft | 339 kts | 35° |
| 2026-05-01 15:04 | 48.19881 | 0.68665 | 18616 ft | 338 kts | 35° |
| 2026-05-01 15:05 | 48.21799 | 0.70695 | 18351 ft | 337 kts | 35° |
| 2026-05-01 15:05 | 48.23707 | 0.72720 | 18089 ft | 335 kts | 35° |
| 2026-05-01 15:05 | 48.25605 | 0.74746 | 17829 ft | 334 kts | 35° |
| 2026-05-01 15:05 | 48.27496 | 0.76769 | 17567 ft | 333 kts | 35° |
| 2026-05-01 15:06 | 48.29379 | 0.78780 | 17307 ft | 332 kts | 35° |
| 2026-05-01 15:06 | 48.31255 | 0.80783 | 17050 ft | 330 kts | 35° |
| 2026-05-01 15:06 | 48.33109 | 0.82808 | 16793 ft | 329 kts | 39° |
| 2026-05-01 15:06 | 48.34715 | 0.85241 | 16537 ft | 328 kts | 51° |
| 2026-05-01 15:07 | 48.35954 | 0.88102 | 16278 ft | 327 kts | 62° |
| 2026-05-01 15:07 | 48.37000 | 0.91131 | 16024 ft | 326 kts | 62° |
| 2026-05-01 15:07 | 48.38045 | 0.94151 | 15773 ft | 325 kts | 62° |
| 2026-05-01 15:07 | 48.39087 | 0.97152 | 15514 ft | 323 kts | 62° |
| 2026-05-01 15:08 | 48.40128 | 1.00147 | 15264 ft | 322 kts | 62° |
| 2026-05-01 15:08 | 48.41165 | 1.03132 | 15012 ft | 321 kts | 62° |
| 2026-05-01 15:08 | 48.42195 | 1.06111 | 14714 ft | 320 kts | 62° |
| 2026-05-01 15:08 | 48.43219 | 1.09076 | 14406 ft | 318 kts | 62° |
| 2026-05-01 15:09 | 48.44235 | 1.12028 | 14106 ft | 317 kts | 62° |
| 2026-05-01 15:09 | 48.45246 | 1.14968 | 13801 ft | 315 kts | 62° |
| 2026-05-01 15:09 | 48.46252 | 1.17897 | 13512 ft | 314 kts | 62° |
| 2026-05-01 15:09 | 48.47250 | 1.20812 | 13221 ft | 312 kts | 63° |
| 2026-05-01 15:10 | 48.48242 | 1.23718 | 12918 ft | 311 kts | 63° |
| 2026-05-01 15:10 | 48.50209 | 1.29495 | 12333 ft | 308 kts | 63° |
| 2026-05-01 15:10 | 48.51182 | 1.32344 | 12040 ft | 304 kts | 62° |
| 2026-05-01 15:11 | 48.52145 | 1.35157 | 11859 ft | 300 kts | 62° |
| 2026-05-01 15:11 | 48.54060 | 1.40735 | 11554 ft | 299 kts | 62° |
| 2026-05-01 15:11 | 48.55013 | 1.43514 | 11394 ft | 298 kts | 62° |
| 2026-05-01 15:12 | 48.55966 | 1.46286 | 11239 ft | 297 kts | 62° |
| 2026-05-01 15:12 | 48.58519 | 1.51084 | 10984 ft | 295 kts | 37° |
| 2026-05-01 15:12 | 48.60278 | 1.52672 | 10699 ft | 294 kts | 25° |
| 2026-05-01 15:13 | 48.65762 | 1.56695 | 10049 ft | 291 kts | 26° |
| 2026-05-01 15:14 | 48.69387 | 1.59371 | 9554 ft | 288 kts | 25° |
| 2026-05-01 15:14 | 48.71189 | 1.60696 | 9348 ft | 288 kts | 26° |
| 2026-05-01 15:14 | 48.74765 | 1.63387 | 8981 ft | 286 kts | 26° |
| 2026-05-01 15:15 | 48.78309 | 1.66110 | 8623 ft | 285 kts | 26° |
| 2026-05-01 15:15 | 48.81773 | 1.68967 | 8290 ft | 283 kts | 39° |
| 2026-05-01 15:16 | 48.83919 | 1.73907 | 8041 ft | 283 kts | 63° |
| 2026-05-01 15:16 | 48.85655 | 1.79215 | 7780 ft | 282 kts | 63° |
| 2026-05-01 15:17 | 48.87401 | 1.84542 | 7542 ft | 281 kts | 63° |
| 2026-05-01 15:18 | 48.89993 | 1.92502 | 7100 ft | 278 kts | 64° |
| 2026-05-01 15:18 | 48.90567 | 1.94271 | 6843 ft | 276 kts | 64° |
| 2026-05-01 15:19 | 48.93022 | 2.01844 | 6179 ft | 250 kts | 64° |
| 2026-05-01 15:19 | 48.94483 | 2.06376 | 5969 ft | 228 kts | 64° |
| 2026-05-01 15:19 | 48.95171 | 2.08512 | 5878 ft | 223 kts | 64° |
| 2026-05-01 15:20 | 48.96533 | 2.12743 | 5674 ft | 222 kts | 65° |
| 2026-05-01 15:20 | 48.96952 | 2.14936 | 5568 ft | 222 kts | 82° |
| 2026-05-01 15:20 | 48.97120 | 2.17320 | 5319 ft | 221 kts | 85° |
| 2026-05-01 15:21 | 48.97245 | 2.19647 | 5043 ft | 220 kts | 85° |
| 2026-05-01 15:21 | 48.97374 | 2.21969 | 4757 ft | 221 kts | 85° |
| 2026-05-01 15:21 | 48.97507 | 2.24310 | 4461 ft | 222 kts | 85° |
| 2026-05-01 15:21 | 48.97640 | 2.26656 | 4166 ft | 223 kts | 85° |
| 2026-05-01 15:22 | 48.97904 | 2.31348 | 3574 ft | 225 kts | 85° |
| 2026-05-01 15:22 | 48.98036 | 2.33710 | 3270 ft | 221 kts | 85° |
| 2026-05-01 15:22 | 48.98165 | 2.35996 | 3003 ft | 210 kts | 85° |
| 2026-05-01 15:23 | 48.98284 | 2.38150 | 2723 ft | 200 kts | 85° |
| 2026-05-01 15:23 | 48.98398 | 2.40215 | 2461 ft | 189 kts | 85° |
| 2026-05-01 15:23 | 48.98503 | 2.42112 | 2216 ft | 172 kts | 85° |
| 2026-05-01 15:23 | 48.98599 | 2.43853 | 2000 ft | 161 kts | 85° |
| 2026-05-01 15:24 | 48.98689 | 2.45502 | 1790 ft | 151 kts | 85° |
| 2026-05-01 15:24 | 48.98773 | 2.47038 | 1601 ft | 142 kts | 85° |
| 2026-05-01 15:24 | 48.98855 | 2.48523 | 1414 ft | 140 kts | 85° |
| 2026-05-01 15:24 | 48.98934 | 2.49989 | 1216 ft | 138 kts | 85° |
| 2026-05-01 15:25 | 48.99012 | 2.51441 | 1035 ft | 137 kts | 85° |
| 2026-05-01 15:25 | 48.99091 | 2.52890 | 858 ft | 137 kts | 85° |
| 2026-05-01 15:25 | 48.99175 | 2.54333 | 679 ft | 136 kts | 85° |
| 2026-05-01 15:25 | 48.99254 | 2.55770 | 511 ft | 136 kts | 85° |
| 2026-05-01 15:26 | 48.99331 | 2.57199 | 362 ft | 132 kts | 85° |
| 2026-05-01 15:26 | 48.99395 | 2.58424 | 353 ft | 95 kts | 85° |
| 2026-05-01 15:26 | 48.99440 | 2.59146 | 354 ft | 38 kts | 75° |
| 2026-05-01 15:26 | 48.99538 | 2.59487 | 357 ft | 32 kts | 65° |
| 2026-05-01 15:27 | 48.99592 | 2.59653 | 362 ft | 5 kts | 53° |
| 2026-05-01 15:27 | 48.99636 | 2.59688 | 359 ft | 13 kts | 10° |
| 2026-05-01 15:27 | 48.99708 | 2.59685 | 354 ft | 0 kts | 355° |
| 2026-05-01 15:29 | 48.99783 | 2.59676 | 360 ft | 17 kts | 355° |
| 2026-05-01 15:29 | 48.99909 | 2.59661 | 362 ft | 19 kts | 355° |
| 2026-05-01 15:29 | 49.00210 | 2.59624 | 354 ft | 24 kts | 355° |
| 2026-05-01 15:30 | 49.00574 | 2.59578 | 354 ft | 28 kts | 355° |
| 2026-05-01 15:31 | 49.00992 | 2.59235 | 354 ft | 18 kts | 265° |
| 2026-05-01 15:31 | 49.00946 | 2.58854 | 354 ft | 19 kts | 267° |
| 2026-05-01 15:32 | 49.00927 | 2.58441 | 360 ft | 20 kts | 263° |
| 2026-05-01 15:32 | 49.00903 | 2.57990 | 355 ft | 22 kts | 265° |
| 2026-05-01 15:33 | 49.00729 | 2.57665 | 362 ft | 12 kts | 185° |
| 2026-05-01 15:34 | 49.00663 | 2.57580 | 362 ft | 1 kts | 248° |